createdAt,value
2018-04-20T00:02:12.252Z,25.53
2018-04-20T00:04:39.626Z,26.60
2018-04-20T00:07:07.027Z,27.40
2018-04-20T00:09:34.602Z,27.63
2018-04-20T00:12:02.047Z,28.10
2018-04-20T00:14:30.452Z,26.43
2018-04-20T00:16:57.884Z,26.47
2018-04-20T00:19:26.086Z,27.30
2018-04-20T00:21:54.256Z,26.27
2018-04-20T00:24:21.665Z,25.73
2018-04-20T00:26:49.130Z,28.57
2018-04-20T00:29:17.297Z,29.33
2018-04-20T00:31:44.749Z,29.00
2018-04-20T00:34:13.010Z,30.63
2018-04-20T00:36:40.427Z,29.97
2018-04-20T00:39:07.843Z,30.23
2018-04-20T00:41:35.431Z,29.33
2018-04-20T00:44:03.617Z,29.27
2018-04-20T00:46:31.036Z,29.67
2018-04-20T00:48:58.459Z,29.87
2018-04-20T00:51:26.665Z,29.67
2018-04-20T00:54:06.836Z,29.17
2018-04-20T00:56:35.018Z,30.53
2018-04-20T00:59:03.193Z,30.63
2018-04-20T01:01:31.382Z,29.13
2018-04-20T01:04:00.491Z,29.87
2018-04-20T01:06:28.706Z,29.50
2018-04-20T01:08:56.159Z,29.23
2018-04-20T01:11:24.336Z,29.30
2018-04-20T01:13:52.521Z,29.40
2018-04-20T01:16:20.732Z,28.93
2018-04-20T01:18:48.165Z,30.43
2018-04-20T01:21:15.594Z,30.52
2018-04-20T01:23:43.017Z,30.53
2018-04-20T01:26:10.430Z,30.17
2018-04-20T01:28:37.868Z,28.97
2018-04-20T01:31:05.316Z,30.37
2018-04-20T01:33:33.492Z,30.67
2018-04-20T01:36:00.931Z,29.80
2018-04-20T01:38:28.350Z,30.03
2018-04-20T01:40:55.760Z,28.63
2018-04-20T01:43:23.189Z,29.33
2018-04-20T01:45:51.386Z,30.03
2018-04-20T01:48:18.781Z,27.73
2018-04-20T01:50:46.209Z,28.50
2018-04-20T01:53:13.629Z,26.90
2018-04-20T01:55:41.081Z,27.47
2018-04-20T01:58:08.475Z,29.53
2018-04-20T02:00:35.911Z,28.07
2018-04-20T02:03:03.337Z,27.00
2018-04-20T02:05:32.073Z,28.85
2018-04-20T02:07:59.491Z,29.60
2018-04-20T02:10:27.709Z,25.50
2018-04-20T02:12:55.208Z,27.30
2018-04-20T02:15:22.636Z,27.40
2018-04-20T02:17:50.812Z,28.30
2018-04-20T02:20:18.997Z,27.53
2018-04-20T02:22:47.189Z,29.00
2018-04-20T02:25:15.383Z,26.40
2018-04-20T02:27:43.588Z,26.17
2018-04-20T02:30:11.012Z,27.00
2018-04-20T02:32:38.452Z,27.00
2018-04-20T02:35:05.869Z,26.13
2018-04-20T02:37:34.074Z,27.40
2018-04-20T02:40:02.687Z,28.02
2018-04-20T02:42:30.100Z,27.70
2018-04-20T02:44:57.533Z,27.60
2018-04-20T02:47:24.961Z,27.43
2018-04-20T02:49:52.388Z,27.20
2018-04-20T02:52:19.812Z,28.57
2018-04-20T02:54:47.285Z,29.57
2018-04-20T02:57:15.453Z,27.60
2018-04-20T02:59:42.884Z,29.20
2018-04-20T03:02:10.316Z,29.33
2018-04-20T03:04:37.733Z,29.07
2018-04-20T03:07:05.171Z,28.70
2018-04-20T03:09:32.595Z,27.70
2018-04-20T03:12:00.791Z,28.57
2018-04-20T03:14:28.216Z,29.03
2018-04-20T03:16:57.150Z,29.30
2018-04-20T03:19:25.334Z,30.40
2018-04-20T03:21:53.533Z,29.30
2018-04-20T03:24:20.985Z,29.60
2018-04-20T03:26:48.579Z,30.00
2018-04-20T03:29:15.997Z,27.70
2018-04-20T03:31:43.428Z,29.60
2018-04-20T03:34:10.843Z,28.30
2018-04-20T03:36:38.290Z,28.90
2018-04-20T03:39:05.712Z,29.07
2018-04-20T03:41:33.197Z,30.43
2018-04-20T03:44:01.353Z,28.80
2018-04-20T03:46:29.609Z,30.57
2018-04-20T03:48:57.020Z,31.13
2018-04-20T03:51:25.216Z,28.57
2018-04-20T03:53:52.648Z,29.80
2018-04-20T03:56:20.099Z,30.37
2018-04-20T03:58:47.588Z,30.13
2018-04-20T04:01:15.305Z,28.70
2018-04-20T04:03:43.469Z,28.97
2018-04-20T04:06:11.680Z,29.57
2018-04-20T04:08:39.100Z,30.13
2018-04-20T04:11:08.042Z,30.03
2018-04-20T04:13:35.462Z,32.23
2018-04-20T04:16:03.992Z,31.75
2018-04-20T04:18:43.168Z,32.70
2018-04-20T04:21:22.720Z,30.20
2018-04-20T04:24:02.116Z,30.23
2018-04-20T04:26:41.245Z,31.27
2018-04-20T04:29:08.759Z,31.30
2018-04-20T04:31:36.213Z,32.83
2018-04-20T04:34:04.413Z,32.53
2018-04-20T04:36:31.887Z,31.03
2018-04-20T04:39:00.052Z,32.43
2018-04-20T04:41:27.472Z,30.87
2018-04-20T04:43:54.888Z,31.37
2018-04-20T04:46:23.095Z,30.73
2018-04-20T04:48:51.284Z,31.00
2018-04-20T04:51:19.488Z,32.07
2018-04-20T04:53:47.060Z,31.83
2018-04-20T04:56:14.940Z,30.77
2018-04-20T04:58:42.416Z,29.70
2018-04-20T05:01:09.819Z,29.47
2018-04-20T05:03:37.266Z,32.23
2018-04-20T05:06:04.737Z,32.83
2018-04-20T05:08:32.187Z,30.87
2018-04-20T05:10:59.618Z,31.47
2018-04-20T05:13:27.801Z,31.00
2018-04-20T05:15:56.049Z,31.33
2018-04-20T05:18:23.473Z,30.63
2018-04-20T05:20:50.920Z,31.20
2018-04-20T05:23:18.333Z,31.47
2018-04-20T05:25:45.761Z,31.30
2018-04-20T05:28:13.193Z,30.27
2018-04-20T05:30:40.600Z,30.80
2018-04-20T05:33:08.787Z,31.80
2018-04-20T05:35:36.981Z,30.47
2018-04-20T05:38:04.552Z,30.90
2018-04-20T05:40:32.772Z,32.00
2018-04-20T05:43:00.209Z,31.30
2018-04-20T05:45:28.425Z,30.67
2018-04-20T05:47:55.842Z,30.50
2018-04-20T05:50:23.328Z,30.67
2018-04-20T05:52:51.556Z,31.03
2018-04-20T05:55:18.994Z,29.30
2018-04-20T05:57:47.173Z,30.83
2018-04-20T06:00:15.353Z,31.20
2018-04-20T06:02:43.548Z,31.20
2018-04-20T06:05:11.728Z,31.03
2018-04-20T06:07:39.912Z,30.80
2018-04-20T06:10:08.107Z,31.10
2018-04-20T06:12:36.324Z,30.50
2018-04-20T06:15:03.759Z,30.37
2018-04-20T06:17:31.965Z,31.17
2018-04-20T06:19:59.388Z,31.30
2018-04-20T06:22:26.821Z,29.90
2018-04-20T06:24:54.238Z,29.03
2018-04-20T06:27:21.656Z,31.17
2018-04-20T06:29:49.096Z,30.37
2018-04-20T06:32:16.554Z,30.47
2018-04-20T06:34:44.744Z,29.60
2018-04-20T06:37:12.933Z,30.87
2018-04-20T06:39:41.117Z,30.80
2018-04-20T06:42:09.302Z,28.83
2018-04-20T06:44:37.498Z,30.00
2018-04-20T06:47:06.449Z,30.08
2018-04-20T06:49:33.875Z,27.87
2018-04-20T06:52:01.310Z,32.77
2018-04-20T06:54:28.730Z,29.93
2018-04-20T06:56:56.193Z,27.27
2018-04-20T06:59:23.619Z,27.17
2018-04-20T07:01:51.049Z,25.77
2018-04-20T07:04:18.472Z,26.43
2018-04-20T07:06:45.884Z,25.57
2018-04-20T07:09:13.322Z,25.57
2018-04-20T07:11:40.745Z,26.90
2018-04-20T07:14:08.299Z,24.40
2018-04-20T07:16:36.863Z,24.70
2018-04-20T07:19:04.320Z,23.65
2018-04-20T07:21:31.776Z,23.70
2018-04-20T07:24:00.007Z,23.97
2018-04-20T07:26:27.611Z,22.70
2018-04-20T07:28:55.070Z,23.23
2018-04-20T07:31:22.504Z,23.53
2018-04-20T07:33:49.994Z,24.20
2018-04-20T07:36:17.438Z,22.70
2018-04-20T07:38:44.896Z,22.60
2018-04-20T07:41:12.338Z,22.60
2018-04-20T07:43:39.780Z,22.83
2018-04-20T07:46:07.186Z,22.87
2018-04-20T07:48:35.384Z,22.20
2018-04-20T07:51:03.610Z,21.47
2018-04-20T07:53:31.049Z,21.70
2018-04-20T07:55:58.480Z,21.20
2018-04-20T07:58:25.901Z,21.27
2018-04-20T08:00:53.319Z,22.00
2018-04-20T08:03:20.836Z,19.80
2018-04-20T08:05:48.232Z,20.30
2018-04-20T08:08:15.697Z,19.17
2018-04-20T08:10:43.083Z,18.83
2018-04-20T08:13:10.528Z,18.93
2018-04-20T08:15:37.928Z,17.93
2018-04-20T08:18:05.443Z,18.00
2018-04-20T08:20:33.612Z,17.20
2018-04-20T08:23:01.045Z,17.17
2018-04-20T08:25:28.499Z,16.97
2018-04-20T08:27:55.949Z,17.10
2018-04-20T08:30:23.412Z,17.75
2018-04-20T08:32:50.953Z,17.63
2018-04-20T08:35:19.143Z,16.73
2018-04-20T08:37:46.737Z,16.17
2018-04-20T08:40:14.163Z,15.63
2018-04-20T08:42:41.593Z,16.50
2018-04-20T08:45:09.054Z,15.90
2018-04-20T08:47:36.469Z,15.83
2018-04-20T08:50:03.900Z,15.00
2018-04-20T08:52:31.328Z,15.50
2018-04-20T08:54:58.782Z,14.20
2018-04-20T08:57:26.288Z,15.40
2018-04-20T08:59:53.775Z,15.67
2018-04-20T09:02:21.236Z,15.03
2018-04-20T09:04:49.691Z,14.90
2018-04-20T09:07:17.873Z,13.73
2018-04-20T09:09:45.400Z,13.70
2018-04-20T09:12:12.814Z,14.83
2018-04-20T09:14:41.016Z,11.13
2018-04-20T09:17:09.197Z,10.17
2018-04-20T09:19:38.320Z,10.13
2018-04-20T09:22:05.751Z,11.13
2018-04-20T09:24:33.207Z,10.30
2018-04-20T09:27:00.725Z,8.60
2018-04-20T09:29:28.880Z,9.20
2018-04-20T09:31:57.073Z,8.30
2018-04-20T09:34:25.349Z,8.88
2018-04-20T09:36:52.682Z,8.43
2018-04-20T09:39:20.117Z,7.60
2018-04-20T09:41:47.565Z,6.70
2018-04-20T09:44:15.764Z,6.47
2018-04-20T09:46:43.189Z,8.00
2018-04-20T09:49:10.616Z,7.07
2018-04-20T09:51:38.721Z,6.73
2018-04-20T09:54:06.173Z,6.80
2018-04-20T09:56:33.636Z,6.60
2018-04-20T09:59:01.083Z,7.10
2018-04-20T10:01:29.292Z,7.07
2018-04-20T10:03:56.752Z,7.60
2018-04-20T10:06:24.327Z,6.70
2018-04-20T10:08:52.540Z,7.10
2018-04-20T10:11:19.998Z,7.17
2018-04-20T10:13:47.424Z,7.23
2018-04-20T10:16:15.641Z,7.70
2018-04-20T10:18:43.845Z,6.87
2018-04-20T10:21:11.254Z,7.33
2018-04-20T10:23:40.068Z,7.10
2018-04-20T10:26:08.243Z,7.43
2018-04-20T10:28:35.676Z,8.90
2018-04-20T10:31:03.251Z,7.43
2018-04-20T10:33:30.650Z,8.00
2018-04-20T10:35:58.863Z,7.73
2018-04-20T10:38:26.294Z,8.07
2018-04-20T10:40:53.725Z,8.10
2018-04-20T10:43:21.134Z,7.63
2018-04-20T10:45:48.569Z,8.30
2018-04-20T10:48:16.036Z,7.77
2018-04-20T10:50:43.444Z,8.27
2018-04-20T10:53:11.626Z,7.90
2018-04-20T10:55:39.976Z,7.53
2018-04-20T10:58:07.407Z,8.10
2018-04-20T11:00:35.594Z,8.50
2018-04-20T11:03:03.025Z,8.60
2018-04-20T11:05:30.495Z,8.80
2018-04-20T11:07:57.955Z,8.73
2018-04-20T11:10:25.366Z,8.27
2018-04-20T11:12:53.561Z,9.00
2018-04-20T11:15:21.002Z,8.60
2018-04-20T11:17:48.505Z,8.10
2018-04-20T11:20:15.924Z,9.13
2018-04-20T11:22:43.437Z,8.33
2018-04-20T11:25:10.853Z,8.20
2018-04-20T11:27:38.290Z,8.57
2018-04-20T11:30:05.756Z,8.90
2018-04-20T11:32:33.192Z,9.53
2018-04-20T11:35:01.418Z,9.00
2018-04-20T11:37:28.813Z,9.80
2018-04-20T11:39:56.240Z,10.23
2018-04-20T11:42:23.649Z,10.07
2018-04-20T11:44:51.088Z,9.90
2018-04-20T11:47:18.558Z,9.30
2018-04-20T11:49:46.727Z,9.02
2018-04-20T11:52:14.140Z,9.63
2018-04-20T11:54:41.584Z,10.17
2018-04-20T11:57:09.054Z,9.67
2018-04-20T11:59:36.466Z,9.77
2018-04-20T12:02:03.981Z,10.90
2018-04-20T12:04:31.490Z,11.00
2018-04-20T12:06:58.893Z,9.70
2018-04-20T12:09:27.222Z,10.43
2018-04-20T12:11:54.665Z,10.27
2018-04-20T12:14:22.832Z,9.97
2018-04-20T12:16:51.055Z,11.63
2018-04-20T12:19:18.516Z,9.80
2018-04-20T12:21:46.699Z,10.17
2018-04-20T12:24:14.152Z,9.87
2018-04-20T12:26:42.339Z,12.40
2018-04-20T12:29:11.468Z,11.37
2018-04-20T12:31:38.888Z,11.47
2018-04-20T12:34:06.419Z,12.20
2018-04-20T12:36:34.577Z,11.50
2018-04-20T12:39:02.028Z,10.80
2018-04-20T12:41:29.431Z,11.63
2018-04-20T12:43:56.863Z,10.93
2018-04-20T12:46:25.063Z,10.80
2018-04-20T12:48:53.257Z,10.23
2018-04-20T12:51:21.625Z,11.43
2018-04-20T12:53:49.133Z,11.60
2018-04-20T12:56:16.559Z,11.93
2018-04-20T12:58:43.995Z,11.77
2018-04-20T13:01:12.871Z,12.27
2018-04-20T13:03:41.972Z,11.53
2018-04-20T13:06:09.470Z,12.23
2018-04-20T13:08:36.884Z,11.90
2018-04-20T13:11:05.315Z,11.70
2018-04-20T13:13:32.742Z,11.50
2018-04-20T13:16:00.201Z,10.90
2018-04-20T13:18:27.637Z,11.57
2018-04-20T13:20:55.093Z,11.43
2018-04-20T13:23:22.547Z,10.77
2018-04-20T13:25:50.726Z,11.97
2018-04-20T13:28:18.178Z,12.23
2018-04-20T13:30:46.369Z,12.17
2018-04-20T13:33:14.550Z,11.40
2018-04-20T13:35:43.594Z,13.67
2018-04-20T13:38:10.998Z,13.90
2018-04-20T13:40:38.441Z,14.80
2018-04-20T13:43:05.889Z,13.40
2018-04-20T13:45:33.358Z,12.50
2018-04-20T13:48:00.805Z,14.20
2018-04-20T13:50:29.004Z,15.10
2018-04-20T13:52:57.198Z,14.70
2018-04-20T13:55:24.632Z,13.97
2018-04-20T13:57:52.140Z,15.43
2018-04-20T14:00:19.616Z,15.90
2018-04-20T14:02:47.057Z,17.30
2018-04-20T14:05:15.264Z,15.37
2018-04-20T14:07:43.431Z,16.40
2018-04-20T14:10:11.627Z,14.13
2018-04-20T14:12:39.061Z,13.57
2018-04-20T14:15:06.574Z,13.33
2018-04-20T14:17:34.009Z,13.13
2018-04-20T14:20:01.536Z,13.30
2018-04-20T14:22:28.988Z,12.73
2018-04-20T14:24:56.393Z,12.40
2018-04-20T14:27:23.813Z,11.97
2018-04-20T14:29:51.263Z,11.60
2018-04-20T14:32:19.455Z,11.80
2018-04-20T14:34:47.652Z,11.07
2018-04-20T14:37:15.141Z,10.87
2018-04-20T14:39:42.666Z,10.73
2018-04-20T14:42:10.086Z,11.43
2018-04-20T14:44:37.569Z,10.97
2018-04-20T14:47:04.980Z,11.17
2018-04-20T14:49:33.216Z,11.37
2018-04-20T14:52:00.668Z,11.80
2018-04-20T14:54:28.486Z,10.50
2018-04-20T14:56:55.990Z,11.50
2018-04-20T14:59:24.237Z,10.50
2018-04-20T15:01:51.674Z,10.97
2018-04-20T15:04:19.080Z,10.13
2018-04-20T15:06:46.577Z,9.77
2018-04-20T15:09:15.415Z,10.40
2018-04-20T15:11:42.876Z,9.67
2018-04-20T15:14:10.453Z,9.20
2018-04-20T15:16:38.633Z,8.73
2018-04-20T15:19:06.123Z,9.40
2018-04-20T15:21:33.563Z,9.43
2018-04-20T15:24:01.790Z,8.90
2018-04-20T15:26:29.233Z,8.40
2018-04-20T15:28:57.550Z,8.53
2018-04-20T15:31:25.093Z,8.97
2018-04-20T15:33:52.665Z,8.80
2018-04-20T15:36:20.874Z,8.30
2018-04-20T15:38:48.301Z,8.67
2018-04-20T15:41:16.512Z,8.57
2018-04-20T15:43:44.078Z,8.13
2018-04-20T15:46:12.510Z,8.60
2018-04-20T15:48:39.956Z,7.37
2018-04-20T15:51:07.473Z,8.23
2018-04-20T15:53:34.901Z,7.60
2018-04-20T15:56:02.363Z,7.03
2018-04-20T15:58:29.821Z,7.80
2018-04-20T16:00:57.275Z,8.60
2018-04-20T16:03:25.478Z,9.20
2018-04-20T16:05:52.951Z,9.02
2018-04-20T16:08:20.366Z,8.77
2018-04-20T16:10:48.560Z,9.27
2018-04-20T16:13:16.001Z,9.20
2018-04-20T16:15:43.485Z,7.63
2018-04-20T16:18:10.839Z,7.90
2018-04-20T16:20:38.411Z,7.33
2018-04-20T16:23:06.189Z,7.23
2018-04-20T16:25:34.483Z,7.20
2018-04-20T16:28:01.940Z,7.97
2018-04-20T16:30:29.437Z,7.33
2018-04-20T16:32:56.874Z,6.97
2018-04-20T16:35:24.335Z,7.20
2018-04-20T16:37:51.771Z,7.07
2018-04-20T16:40:19.992Z,7.60
2018-04-20T16:42:47.414Z,7.93
2018-04-20T16:45:16.513Z,7.10
2018-04-20T16:47:44.704Z,6.97
2018-04-20T16:50:12.881Z,7.20
2018-04-20T16:52:40.328Z,6.63
2018-04-20T16:55:07.796Z,6.67
2018-04-20T16:57:35.215Z,7.70
2018-04-20T17:00:03.410Z,7.43
2018-04-20T17:02:30.876Z,8.93
2018-04-20T17:04:58.353Z,7.70
2018-04-20T17:07:25.796Z,7.80
2018-04-20T17:09:53.312Z,7.80
2018-04-20T17:12:20.728Z,7.57
2018-04-20T17:14:48.929Z,8.13
2018-04-20T17:17:17.823Z,8.23
2018-04-20T17:19:46.930Z,8.63
2018-04-20T17:22:15.124Z,9.33
2018-04-20T17:24:43.304Z,8.50
2018-04-20T17:27:11.492Z,9.20
2018-04-20T17:29:39.681Z,9.10
2018-04-20T17:32:07.897Z,8.90
2018-04-20T17:34:35.329Z,8.80
2018-04-20T17:37:03.553Z,8.67
2018-04-20T17:39:31.023Z,9.37
2018-04-20T17:41:58.443Z,9.07
2018-04-20T17:44:26.641Z,10.20
2018-04-20T17:46:54.857Z,10.40
2018-04-20T17:49:22.317Z,9.70
2018-04-20T17:51:49.804Z,9.70
2018-04-20T17:54:18.566Z,9.40
2018-04-20T17:56:47.665Z,9.50
2018-04-20T17:59:15.081Z,9.60
2018-04-20T18:01:42.547Z,9.60
2018-04-20T18:04:09.961Z,10.33
2018-04-20T18:06:37.408Z,10.80
2018-04-20T18:09:04.940Z,10.03
2018-04-20T18:11:32.439Z,11.50
2018-04-20T18:13:59.857Z,11.10
2018-04-20T18:16:28.035Z,12.87
2018-04-20T18:18:56.236Z,10.23
2018-04-20T18:21:23.692Z,11.90
2018-04-20T18:23:51.172Z,10.40
2018-04-20T18:26:19.349Z,10.63
2018-04-20T18:28:48.465Z,11.00
2018-04-20T18:31:16.661Z,12.30
2018-04-20T18:33:44.887Z,11.50
2018-04-20T18:36:12.301Z,12.27
2018-04-20T18:38:40.518Z,13.53
2018-04-20T18:41:07.981Z,12.90
2018-04-20T18:43:35.461Z,13.33
2018-04-20T18:46:02.917Z,13.37
2018-04-20T18:48:30.387Z,14.47
2018-04-20T18:50:57.861Z,14.03
2018-04-20T18:53:25.287Z,14.00
2018-04-20T18:55:52.802Z,13.87
2018-04-20T18:58:20.205Z,15.00
2018-04-20T19:00:47.733Z,14.60
2018-04-20T19:03:15.209Z,16.30
2018-04-20T19:05:42.648Z,15.10
2018-04-20T19:08:10.846Z,15.00
2018-04-20T19:10:39.024Z,14.30
2018-04-20T19:13:07.258Z,15.90
2018-04-20T19:15:34.680Z,15.17
2018-04-20T19:18:02.909Z,17.57
2018-04-20T19:20:31.198Z,18.30
2018-04-20T19:22:58.744Z,17.00
2018-04-20T19:25:26.925Z,17.83
2018-04-20T19:27:54.376Z,16.70
2018-04-20T19:30:22.574Z,16.53
2018-04-20T19:32:50.874Z,17.80
2018-04-20T19:35:20.021Z,20.17
2018-04-20T19:37:47.425Z,18.83
2018-04-20T19:40:15.638Z,19.97
2018-04-20T19:42:43.216Z,18.77
2018-04-20T19:45:10.652Z,17.50
2018-04-20T19:47:38.860Z,15.27
2018-04-20T19:50:06.301Z,17.03
2018-04-20T19:52:34.493Z,17.03
2018-04-20T19:55:02.685Z,17.80
2018-04-20T19:57:30.893Z,18.37
2018-04-20T19:59:58.316Z,18.70
2018-04-20T20:02:25.745Z,17.87
2018-04-20T20:04:53.199Z,18.20
2018-04-20T20:07:21.397Z,18.63
2018-04-20T20:09:48.829Z,18.80
2018-04-20T20:12:16.249Z,19.70
2018-04-20T20:14:43.705Z,18.00
2018-04-20T20:17:11.134Z,18.67
2018-04-20T20:19:39.369Z,18.67
2018-04-20T20:22:06.830Z,17.70
2018-04-20T20:24:34.256Z,17.30
2018-04-20T20:27:02.502Z,17.00
2018-04-20T20:29:29.913Z,16.17
2018-04-20T20:31:58.110Z,17.37
2018-04-20T20:34:25.585Z,16.60
2018-04-20T20:36:53.759Z,15.70
2018-04-20T20:39:21.953Z,18.00
2018-04-20T20:41:51.121Z,17.80
2018-04-20T20:44:18.757Z,18.23
2018-04-20T20:46:46.214Z,17.65
2018-04-20T20:49:14.408Z,18.30
2018-04-20T20:51:41.852Z,17.37
2018-04-20T20:54:10.052Z,18.27
2018-04-20T20:56:37.511Z,19.00
2018-04-20T20:59:05.688Z,18.53
2018-04-20T21:01:34.275Z,19.27
2018-04-20T21:04:01.729Z,20.80
2018-04-20T21:06:29.161Z,20.47
2018-04-20T21:08:56.603Z,18.80
2018-04-20T21:11:24.185Z,20.77
2018-04-20T21:13:52.456Z,19.67
2018-04-20T21:16:21.573Z,20.27
2018-04-20T21:18:49.753Z,22.60
2018-04-20T21:21:17.928Z,21.77
2018-04-20T21:23:46.145Z,21.43
2018-04-20T21:26:13.621Z,22.83
2018-04-20T21:28:41.805Z,21.47
2018-04-20T21:31:09.244Z,20.47
2018-04-20T21:33:37.433Z,20.47
2018-04-20T21:36:04.870Z,21.20
2018-04-20T21:38:33.265Z,21.33
2018-04-20T21:41:00.691Z,21.73
2018-04-20T21:43:28.159Z,21.60
2018-04-20T21:45:55.609Z,20.47
2018-04-20T21:48:23.880Z,21.40
2018-04-20T21:50:53.015Z,22.17
2018-04-20T21:53:20.472Z,22.20
2018-04-20T21:55:47.940Z,21.93
2018-04-20T21:58:15.369Z,24.07
2018-04-20T22:00:42.829Z,23.63
2018-04-20T22:03:10.311Z,24.90
2018-04-20T22:05:37.922Z,23.45
2018-04-20T22:08:05.411Z,24.17
2018-04-20T22:10:32.920Z,23.70
2018-04-20T22:13:00.428Z,24.03
2018-04-20T22:15:27.890Z,24.00
2018-04-20T22:17:55.365Z,25.37
2018-04-20T22:20:23.208Z,24.35
2018-04-20T22:22:50.659Z,25.63
2018-04-20T22:25:18.100Z,26.30
2018-04-20T22:27:45.616Z,26.57
2018-04-20T22:30:13.063Z,27.07
2018-04-20T22:32:40.545Z,26.27
2018-04-20T22:35:07.974Z,27.00
2018-04-20T22:37:36.227Z,27.10
2018-04-20T22:40:03.672Z,26.63
2018-04-20T22:42:31.114Z,28.00
2018-04-20T22:44:59.312Z,27.13
2018-04-20T22:47:27.617Z,26.50
2018-04-20T22:49:55.090Z,27.83
2018-04-20T22:52:23.427Z,28.00
2018-04-20T22:54:50.990Z,28.30
2018-04-20T22:57:18.473Z,26.70
2018-04-20T22:59:45.913Z,27.23
2018-04-20T23:02:13.432Z,28.30
2018-04-20T23:04:40.868Z,28.67
2018-04-20T23:07:08.398Z,26.50
2018-04-20T23:09:36.611Z,27.67
2018-04-20T23:12:04.314Z,28.97
2018-04-20T23:14:32.755Z,29.35
2018-04-20T23:17:00.981Z,27.98
2018-04-20T23:19:28.456Z,29.17
2018-04-20T23:21:55.896Z,29.63
2018-04-20T23:24:24.689Z,29.45
2018-04-20T23:26:53.901Z,29.30
2018-04-20T23:29:21.336Z,30.80
2018-04-20T23:31:48.783Z,29.50
2018-04-20T23:34:16.244Z,29.80
2018-04-20T23:36:43.677Z,28.73
2018-04-20T23:39:11.908Z,29.93
2018-04-20T23:41:39.332Z,29.10
2018-04-20T23:44:07.533Z,29.27
2018-04-20T23:46:35.737Z,27.40
2018-04-20T23:49:03.242Z,29.10
2018-04-20T23:51:30.703Z,28.80
2018-04-20T23:53:58.125Z,26.20
2018-04-20T23:56:26.325Z,28.20
2018-04-20T23:58:55.235Z,26.15
